createdAt,value
2022-11-28T00:02:13.207Z,16.00
2022-11-28T00:05:15.525Z,16.38
2022-11-28T00:08:18.074Z,15.20
2022-11-28T00:11:20.665Z,15.37
2022-11-28T00:14:22.859Z,15.37
2022-11-28T00:17:25.108Z,15.15
2022-11-28T00:20:27.481Z,14.82
2022-11-28T00:23:30.420Z,13.93
2022-11-28T00:26:40.534Z,14.90
2022-11-28T00:29:42.763Z,13.50
2022-11-28T00:32:45.003Z,14.43
2022-11-28T00:35:47.493Z,12.95
2022-11-28T00:38:50.098Z,14.27
2022-11-28T00:41:52.627Z,12.25
2022-11-28T00:44:54.861Z,12.30
2022-11-28T00:47:57.071Z,12.60
2022-11-28T00:51:12.986Z,12.13
2022-11-28T00:54:15.300Z,11.50
2022-11-28T00:57:17.534Z,11.35
2022-11-28T01:00:20.030Z,11.27
2022-11-28T01:03:22.604Z,12.05
2022-11-28T01:06:32.245Z,11.45
2022-11-28T01:09:34.476Z,12.50
2022-11-28T01:12:36.929Z,12.50
2022-11-28T01:15:40.877Z,11.60
2022-11-28T01:18:43.043Z,11.73
2022-11-28T01:21:45.252Z,11.15
2022-11-28T01:24:47.477Z,11.55
2022-11-28T01:27:49.677Z,12.65
2022-11-28T01:30:51.844Z,11.13
2022-11-28T01:33:54.419Z,11.43
2022-11-28T01:36:56.972Z,10.93
2022-11-28T01:39:59.217Z,10.57
2022-11-28T01:43:01.411Z,10.88
2022-11-28T01:46:04.539Z,11.70
2022-11-28T01:49:30.440Z,10.57
2022-11-28T01:52:33.859Z,10.93
2022-11-28T01:55:40.015Z,10.30
2022-11-28T01:58:45.675Z,10.10
2022-11-28T02:01:48.013Z,8.37
2022-11-28T02:04:50.942Z,9.70
2022-11-28T02:07:53.496Z,8.85
2022-11-28T02:10:55.793Z,9.07
2022-11-28T02:14:01.090Z,9.13
2022-11-28T02:17:06.744Z,8.90
2022-11-28T02:20:12.097Z,8.73
2022-11-28T02:23:23.507Z,8.50
2022-11-28T02:26:44.652Z,8.80
2022-11-28T02:30:02.003Z,9.00
2022-11-28T02:33:13.694Z,8.50
2022-11-28T02:36:15.861Z,8.50
2022-11-28T02:39:24.365Z,7.93
2022-11-28T02:42:31.586Z,8.27
2022-11-28T02:45:53.988Z,8.02
2022-11-28T02:49:01.849Z,8.40
2022-11-28T02:52:08.174Z,8.52
2022-11-28T02:55:10.980Z,8.55
2022-11-28T02:58:13.548Z,9.85
2022-11-28T03:01:19.504Z,7.32
2022-11-28T03:04:27.968Z,7.07
2022-11-28T03:07:33.277Z,7.93
2022-11-28T03:10:35.549Z,8.60
2022-11-28T03:13:46.804Z,8.80
2022-11-28T03:16:58.685Z,7.88
2022-11-28T03:20:16.279Z,7.83
2022-11-28T03:23:27.128Z,8.45
2022-11-28T03:26:53.315Z,8.32
2022-11-28T03:29:57.210Z,7.68
2022-11-28T03:33:01.226Z,7.27
2022-11-28T03:36:12.800Z,8.73
2022-11-28T03:39:17.606Z,9.02
2022-11-28T03:42:24.424Z,8.68
2022-11-28T03:45:28.800Z,8.35
2022-11-28T03:48:32.852Z,8.65
2022-11-28T03:52:01.560Z,9.80
2022-11-28T03:55:06.182Z,9.98
2022-11-28T03:58:08.411Z,9.93
2022-11-28T04:01:33.948Z,9.15
2022-11-28T04:04:45.656Z,8.57
2022-11-28T04:07:56.912Z,8.60
2022-11-28T04:11:06.763Z,9.88
2022-11-28T04:14:20.968Z,10.35
2022-11-28T04:17:30.433Z,10.57
2022-11-28T04:20:35.990Z,12.47
2022-11-28T04:23:39.109Z,12.73
2022-11-28T04:26:42.544Z,12.93
2022-11-28T04:29:46.847Z,12.98
2022-11-28T04:32:55.797Z,13.30
2022-11-28T04:35:58.805Z,12.80
2022-11-28T04:39:02.159Z,13.63
2022-11-28T04:42:08.336Z,12.55
2022-11-28T04:45:13.688Z,13.27
2022-11-28T04:48:16.309Z,13.45
2022-11-28T04:51:27.754Z,13.83
2022-11-28T04:54:38.321Z,13.87
2022-11-28T04:57:54.201Z,15.80
2022-11-28T05:01:00.128Z,14.65
2022-11-28T05:04:02.965Z,14.60
2022-11-28T05:07:06.172Z,14.43
2022-11-28T05:10:09.985Z,14.70
2022-11-28T05:13:12.616Z,14.90
2022-11-28T05:16:15.480Z,13.57
2022-11-28T05:19:17.660Z,13.88
2022-11-28T05:22:19.894Z,14.37
2022-11-28T05:25:22.234Z,14.80
2022-11-28T05:28:25.090Z,13.98
2022-11-28T05:31:27.765Z,13.07
2022-11-28T05:34:31.240Z,13.43
2022-11-28T05:37:33.939Z,13.33
2022-11-28T05:40:43.250Z,12.23
2022-11-28T05:43:45.541Z,13.32
2022-11-28T05:46:47.873Z,14.27
2022-11-28T05:49:50.259Z,14.93
2022-11-28T05:52:52.544Z,14.43
2022-11-28T05:55:54.816Z,14.63
2022-11-28T05:58:57.156Z,14.27
2022-11-28T06:02:05.675Z,14.40
2022-11-28T06:05:34.663Z,14.48
2022-11-28T06:08:30.712Z,13.17
2022-11-28T06:11:33.827Z,14.47
2022-11-28T06:14:36.337Z,15.77
2022-11-28T06:17:38.934Z,14.05
2022-11-28T06:20:41.198Z,14.68
2022-11-28T06:23:43.608Z,13.57
2022-11-28T06:26:45.960Z,14.33
2022-11-28T06:29:48.198Z,15.73
2022-11-28T06:32:51.046Z,14.77
2022-11-28T06:35:59.466Z,16.55
2022-11-28T06:39:02.508Z,17.47
2022-11-28T06:42:05.429Z,16.80
2022-11-28T06:45:09.355Z,16.27
2022-11-28T06:48:13.815Z,16.42
2022-11-28T06:51:17.889Z,15.27
2022-11-28T06:54:20.345Z,15.90
2022-11-28T06:57:28.358Z,15.97
2022-11-28T07:00:40.949Z,15.57
2022-11-28T07:03:47.968Z,14.90
2022-11-28T07:06:56.321Z,16.15
2022-11-28T07:10:09.582Z,14.83
2022-11-28T07:13:14.442Z,14.70
2022-11-28T07:16:18.400Z,14.25
2022-11-28T07:19:23.184Z,16.13
2022-11-28T07:22:29.859Z,15.32
2022-11-28T07:25:32.396Z,15.27
2022-11-28T07:28:37.987Z,15.90
2022-11-28T07:31:40.420Z,14.55
2022-11-28T07:34:45.553Z,15.00
2022-11-28T07:37:53.089Z,15.45
2022-11-28T07:40:56.429Z,13.10
2022-11-28T07:44:01.253Z,13.47
2022-11-28T07:47:05.033Z,14.55
2022-11-28T07:53:33.606Z,13.40
2022-11-28T07:57:11.501Z,13.57
2022-11-28T08:00:11.563Z,11.17
2022-11-28T08:03:40.844Z,10.23
2022-11-28T08:06:45.261Z,9.88
2022-11-28T08:09:51.514Z,10.63
2022-11-28T08:12:54.443Z,11.25
2022-11-28T08:15:57.538Z,9.57
2022-11-28T08:19:03.562Z,10.25
2022-11-28T08:22:12.685Z,9.77
2022-11-28T08:25:15.479Z,10.07
2022-11-28T08:28:18.381Z,11.13
2022-11-28T08:31:25.208Z,10.60
2022-11-28T08:34:31.024Z,10.90
2022-11-28T08:37:33.834Z,10.90
2022-11-28T08:40:39.765Z,11.55
2022-11-28T08:43:57.681Z,12.35
2022-11-28T08:47:20.508Z,12.63
2022-11-28T08:50:29.727Z,11.05
2022-11-28T08:53:35.740Z,10.95
2022-11-28T08:57:03.782Z,11.40
2022-11-28T09:00:24.019Z,10.13
2022-11-28T09:03:27.630Z,12.07
2022-11-28T09:06:34.491Z,10.25
2022-11-28T09:09:37.409Z,10.05
2022-11-28T09:12:42.392Z,11.32
2022-11-28T09:15:48.088Z,10.53
2022-11-28T09:19:00.096Z,10.50
2022-11-28T09:22:02.712Z,10.95
2022-11-28T09:25:05.570Z,10.55
2022-11-28T09:28:18.827Z,9.73
2022-11-28T09:31:24.815Z,10.05
2022-11-28T09:34:30.287Z,9.77
2022-11-28T09:37:41.156Z,9.55
2022-11-28T09:40:45.019Z,10.00
2022-11-28T09:44:32.353Z,10.73
2022-11-28T09:48:06.124Z,10.02
2022-11-28T09:52:00.650Z,9.57
2022-11-28T09:55:51.329Z,11.13
2022-11-28T09:59:10.684Z,10.15
2022-11-28T10:02:23.705Z,8.77
2022-11-28T10:05:37.512Z,10.45
2022-11-28T10:09:00.209Z,9.97
2022-11-28T10:12:22.918Z,10.50
2022-11-28T10:15:34.270Z,9.30
2022-11-28T10:18:54.260Z,9.95
2022-11-28T10:21:59.573Z,9.73
2022-11-28T10:25:09.470Z,10.33
2022-11-28T10:28:18.208Z,10.65
2022-11-28T10:31:22.078Z,8.23
2022-11-28T10:34:39.477Z,9.32
2022-11-28T10:37:43.685Z,10.10
2022-11-28T10:41:06.687Z,9.30
2022-11-28T10:44:30.120Z,10.65
2022-11-28T10:47:54.549Z,10.82
2022-11-28T10:51:22.102Z,10.10
2022-11-28T10:54:31.218Z,10.43
2022-11-28T10:58:14.263Z,10.73
2022-11-28T11:01:22.052Z,11.18
2022-11-28T11:04:27.986Z,11.27
2022-11-28T11:07:32.139Z,10.65
2022-11-28T11:11:06.261Z,11.68
2022-11-28T11:14:11.648Z,10.70
2022-11-28T11:17:52.475Z,10.75
2022-11-28T11:21:10.716Z,9.60
2022-11-28T11:24:18.363Z,10.48
2022-11-28T11:27:22.218Z,10.38
2022-11-28T11:30:34.260Z,8.70
2022-11-28T11:33:37.950Z,10.70
2022-11-28T11:36:46.924Z,10.02
2022-11-28T11:39:53.329Z,10.00
2022-11-28T11:43:02.076Z,11.32
2022-11-28T11:46:23.821Z,11.67
2022-11-28T11:49:55.027Z,11.27
2022-11-28T11:53:14.741Z,10.57
2022-11-28T11:56:34.731Z,10.77
2022-11-28T11:59:44.955Z,12.02
2022-11-28T12:03:00.442Z,9.93
2022-11-28T12:06:14.959Z,9.98
2022-11-28T12:09:20.822Z,9.55
2022-11-28T12:12:27.698Z,8.13
2022-11-28T12:16:18.787Z,8.02
2022-11-28T12:19:35.748Z,9.17
2022-11-28T12:22:59.693Z,8.45
2022-11-28T12:26:08.693Z,9.10
2022-11-28T12:29:26.172Z,8.98
2022-11-28T12:32:33.499Z,9.15
2022-11-28T12:35:48.816Z,8.80
2022-11-28T12:39:25.803Z,9.68
2022-11-28T12:42:37.073Z,9.95
2022-11-28T12:45:42.959Z,10.60
2022-11-28T12:53:25.471Z,10.83
2022-11-28T12:57:06.402Z,10.05
2022-11-28T13:00:29.832Z,9.93
2022-11-28T13:03:46.938Z,11.00
2022-11-28T13:07:13.993Z,10.95
2022-11-28T13:10:23.144Z,9.73
2022-11-28T13:13:47.872Z,11.57
2022-11-28T13:16:51.613Z,10.73
2022-11-28T13:20:07.997Z,11.25
2022-11-28T13:23:26.388Z,11.52
2022-11-28T13:26:34.259Z,11.43
2022-11-28T13:29:42.706Z,12.38
2022-11-28T13:32:48.949Z,10.70
2022-11-28T13:35:54.574Z,12.65
2022-11-28T13:39:17.631Z,11.88
2022-11-28T13:43:08.461Z,12.20
2022-11-28T13:46:10.257Z,11.23
2022-11-28T13:49:27.886Z,11.27
2022-11-28T13:52:36.039Z,12.18
2022-11-28T13:55:48.097Z,10.17
2022-11-28T13:59:16.483Z,11.53
2022-11-28T14:02:41.852Z,12.68
2022-11-28T14:05:45.865Z,11.88
2022-11-28T14:08:50.072Z,11.20
2022-11-28T14:12:08.682Z,10.63
2022-11-28T14:15:15.249Z,11.87
2022-11-28T14:22:21.525Z,11.45
2022-11-28T14:25:28.922Z,12.60
2022-11-28T14:28:38.334Z,13.00
2022-11-28T14:32:06.514Z,10.70
2022-11-28T14:35:17.426Z,12.52
2022-11-28T14:38:32.508Z,11.32
2022-11-28T14:42:11.363Z,11.73
2022-11-28T14:45:35.338Z,12.30
2022-11-28T14:48:42.169Z,12.60
2022-11-28T14:51:47.698Z,11.43
2022-11-28T14:54:53.208Z,13.30
2022-11-28T14:58:00.161Z,12.98
2022-11-28T15:01:05.574Z,12.90
2022-11-28T15:04:16.683Z,12.83
2022-11-28T15:07:22.017Z,12.70
2022-11-28T15:10:37.585Z,13.73
2022-11-28T15:13:56.395Z,13.85
2022-11-28T15:17:02.703Z,13.40
2022-11-28T15:20:08.693Z,13.70
2022-11-28T15:23:29.093Z,14.27
2022-11-28T15:26:31.588Z,12.30
2022-11-28T15:29:34.664Z,13.98
2022-11-28T15:32:38.073Z,12.90
2022-11-28T15:35:55.735Z,13.40
2022-11-28T15:38:58.129Z,13.63
2022-11-28T15:42:01.082Z,13.55
2022-11-28T15:45:12.329Z,13.00
2022-11-28T15:48:38.778Z,13.43
2022-11-28T15:51:51.789Z,14.10
2022-11-28T15:54:54.285Z,13.63
2022-11-28T15:58:15.781Z,13.40
2022-11-28T16:01:19.957Z,13.55
2022-11-28T16:04:22.684Z,14.10
2022-11-28T16:07:26.125Z,14.23
2022-11-28T16:10:37.115Z,15.95
2022-11-28T16:13:39.995Z,14.80
2022-11-28T16:16:42.337Z,16.45
2022-11-28T16:19:44.997Z,15.30
2022-11-28T16:22:47.422Z,17.37
2022-11-28T16:26:07.160Z,16.40
2022-11-28T16:29:09.621Z,17.77
2022-11-28T16:32:35.658Z,16.50
2022-11-28T16:35:41.653Z,16.13
2022-11-28T16:38:44.507Z,18.07
2022-11-28T16:41:50.270Z,16.73
2022-11-28T16:44:52.952Z,16.70
2022-11-28T16:48:22.205Z,16.85
2022-11-28T16:51:33.092Z,17.27
2022-11-28T16:54:35.370Z,17.37
2022-11-28T16:57:47.966Z,16.65
2022-11-28T17:01:02.953Z,16.70
2022-11-28T17:04:05.413Z,17.20
2022-11-28T17:07:13.999Z,16.80
2022-11-28T17:10:16.380Z,16.10
2022-11-28T17:13:19.503Z,17.02
2022-11-28T17:16:23.337Z,16.98
2022-11-28T17:19:25.783Z,17.08
2022-11-28T17:22:40.721Z,17.90
2022-11-28T17:25:44.168Z,16.57
2022-11-28T17:28:47.161Z,19.25
2022-11-28T17:31:50.402Z,17.77
2022-11-28T17:34:52.934Z,17.25
2022-11-28T17:37:55.212Z,16.23
2022-11-28T17:40:57.831Z,16.83
2022-11-28T17:44:00.523Z,17.75
2022-11-28T17:47:03.613Z,20.23
2022-11-28T17:50:06.518Z,19.85
2022-11-28T17:53:10.480Z,17.27
2022-11-28T17:56:12.957Z,18.37
2022-11-28T17:59:16.348Z,19.48
2022-11-28T18:02:18.888Z,19.55
2022-11-28T18:05:21.603Z,18.67
2022-11-28T18:08:24.445Z,19.07
2022-11-28T18:11:28.311Z,19.33
2022-11-28T18:14:35.191Z,18.55
2022-11-28T18:17:41.025Z,19.20
2022-11-28T18:20:43.468Z,18.70
2022-11-28T18:23:47.912Z,19.77
2022-11-28T18:26:50.356Z,18.13
2022-11-28T18:29:53.244Z,20.35
2022-11-28T18:32:55.819Z,20.10
2022-11-28T18:36:07.702Z,20.95
2022-11-28T18:39:12.635Z,19.00
2022-11-28T18:42:15.072Z,19.03
2022-11-28T18:45:17.948Z,19.10
2022-11-28T18:48:20.179Z,18.38
2022-11-28T18:51:30.172Z,20.90
2022-11-28T18:54:33.267Z,20.07
2022-11-28T18:57:36.419Z,18.50
2022-11-28T19:00:39.699Z,18.92
2022-11-28T19:03:43.817Z,17.80
2022-11-28T19:06:48.643Z,18.35
2022-11-28T19:09:51.780Z,19.17
2022-11-28T19:12:55.002Z,17.67
2022-11-28T19:15:57.785Z,18.70
2022-11-28T19:19:01.054Z,17.98
2022-11-28T19:22:04.389Z,17.60
2022-11-28T19:25:07.972Z,17.53
2022-11-28T19:28:10.399Z,18.30
2022-11-28T19:31:15.336Z,18.02
2022-11-28T19:34:19.243Z,15.90
2022-11-28T19:37:21.577Z,17.65
2022-11-28T19:40:24.242Z,17.00
2022-11-28T19:43:26.620Z,15.50
2022-11-28T19:46:35.011Z,17.33
2022-11-28T19:49:38.509Z,18.95
2022-11-28T19:52:41.175Z,17.60
2022-11-28T19:55:44.582Z,15.43
2022-11-28T19:58:47.461Z,17.23
2022-11-28T20:01:50.249Z,17.05
2022-11-28T20:04:52.823Z,17.75
2022-11-28T20:07:58.430Z,16.27
2022-11-28T20:11:23.725Z,18.67
2022-11-28T20:14:27.735Z,16.33
2022-11-28T20:17:30.485Z,16.23
2022-11-28T20:20:34.208Z,16.30
2022-11-28T20:23:43.977Z,16.80
2022-11-28T20:26:46.916Z,16.57
2022-11-28T20:29:49.638Z,15.47
2022-11-28T20:32:53.297Z,15.93
2022-11-28T20:36:09.710Z,16.90
2022-11-28T20:39:12.909Z,15.60
2022-11-28T20:42:15.362Z,16.40
2022-11-28T20:45:17.574Z,16.37
2022-11-28T20:48:20.018Z,17.40
2022-11-28T20:51:24.976Z,15.50
2022-11-28T20:54:27.525Z,16.02
2022-11-28T20:57:30.167Z,16.90
2022-11-28T21:00:32.479Z,15.40
2022-11-28T21:03:35.063Z,16.30
2022-11-28T21:06:38.281Z,15.98
2022-11-28T21:09:40.959Z,15.75
2022-11-28T21:12:43.509Z,16.90
2022-11-28T21:15:45.997Z,15.40
2022-11-28T21:18:49.681Z,16.77
2022-11-28T21:21:51.989Z,16.33
2022-11-28T21:24:54.443Z,16.38
2022-11-28T21:27:56.698Z,16.90
2022-11-28T21:30:59.030Z,16.10
2022-11-28T21:34:01.552Z,18.15
2022-11-28T21:37:03.820Z,15.75
2022-11-28T21:40:06.492Z,16.35
2022-11-28T21:43:08.809Z,17.50
2022-11-28T21:46:11.407Z,16.43
2022-11-28T21:49:13.744Z,18.08
2022-11-28T21:52:17.012Z,15.13
2022-11-28T21:55:19.816Z,16.55
2022-11-28T21:58:26.632Z,18.97
2022-11-28T22:01:30.047Z,18.10
2022-11-28T22:04:32.735Z,17.42
2022-11-28T22:07:36.293Z,17.80
2022-11-28T22:10:38.831Z,16.42
2022-11-28T22:13:42.631Z,17.30
2022-11-28T22:16:44.875Z,18.17
2022-11-28T22:19:48.939Z,16.13
2022-11-28T22:22:51.387Z,14.63
2022-11-28T22:25:53.648Z,16.67
2022-11-28T22:28:56.273Z,15.47
2022-11-28T22:31:59.163Z,15.20
2022-11-28T22:35:02.718Z,15.48
2022-11-28T22:38:04.953Z,15.00
2022-11-28T22:41:08.308Z,13.25
2022-11-28T22:44:10.930Z,14.90
2022-11-28T22:47:13.521Z,14.63
2022-11-28T22:50:15.836Z,14.13
2022-11-28T22:53:18.028Z,13.80
2022-11-28T22:56:20.687Z,13.20
2022-11-28T22:59:23.038Z,13.13
2022-11-28T23:02:25.515Z,13.20
2022-11-28T23:05:28.461Z,13.18
2022-11-28T23:08:30.929Z,11.82
2022-11-28T23:11:34.709Z,13.90
2022-11-28T23:14:36.957Z,12.00
2022-11-28T23:17:39.166Z,11.80
2022-11-28T23:20:41.530Z,12.93
2022-11-28T23:23:46.740Z,13.23
2022-11-28T23:26:50.305Z,13.38
2022-11-28T23:29:52.617Z,12.70
2022-11-28T23:32:55.406Z,14.67
2022-11-28T23:35:58.123Z,12.48
2022-11-28T23:39:04.729Z,12.27
2022-11-28T23:42:06.921Z,12.85
2022-11-28T23:45:09.499Z,12.97
2022-11-28T23:48:11.765Z,13.53
2022-11-28T23:51:15.357Z,13.73
2022-11-28T23:54:17.838Z,13.68
2022-11-28T23:57:20.074Z,14.40
